Webcam

2017/06/22 11:20 EBBR 221120Z 25009KT 210V290 CAVOK 32/16 Q1011 NOSIG

Webcam image

--- Refresh now ---